Stations météo

Publicité
Großer Arber, Allemagne (10791): Température de l'air & dewpoint: 07.12.2018 11:00:00 - 13.12.2018 11:00:00 (CET)Großer Arber, Allemagne (10791): Vitesse du vent & gusts: 07.12.2018 11:00:00 - 13.12.2018 11:00:00 (CET)Großer Arber, Allemagne (10791): Direction du vent: 07.12.2018 11:00:00 - 13.12.2018 11:00:00 (CET)Großer Arber, Allemagne (10791): visibility: 07.12.2018 11:00:00 - 13.12.2018 11:00:00 (CET)Großer Arber, Allemagne (10791): Ensoleillement: 07.12.2018 11:00:00 - 13.12.2018 11:00:00 (CET)Großer Arber, Allemagne (10791): Quantités de précipitations: 07.12.2018 11:00:00 - 13.12.2018 11:00:00 (CET)
Date & Time tt [°C] td [°C] ff [km/h] ff [knt] fx [km/h] fx [knt] dd vv [km] sd [min] rr [mm]
13.12.2018 11:00:00 -8,9 -10,0 23 12 37 20 E - 0 0,0
13.12.2018 10:00:00 -9,0 -10,1 20 11 33 18 E 0,1 0 0,0
13.12.2018 09:00:00 -9,2 -10,3 21 11 38 21 E - 0 0,0
13.12.2018 08:00:00 -9,2 -10,2 21 12 39 21 E 0,1 0 0,0
13.12.2018 07:00:00 -9,1 -10,1 22 12 41 22 E - 0 0,0
13.12.2018 06:00:00 -9,1 -10,1 19 10 36 19 E 0,1 0 0,0
13.12.2018 05:00:00 -9,1 -10,1 18 10 36 19 E - 0 0,0
13.12.2018 04:00:00 -9,2 -10,3 18 10 32 18 E 0,1 0 0,0
13.12.2018 03:00:00 -9,0 -10,0 16 9 34 19 E 0,2 0 0,0
13.12.2018 02:00:00 -8,9 -10,0 20 11 37 20 ENE 0,1 0 0,0
13.12.2018 01:00:00 -9,0 -10,0 21 12 40 21 ENE 0,1 0 0,0
13.12.2018 00:00:00 -8,9 -10,0 21 11 34 18 ENE 0,1 0 0,0
12.12.2018 23:00:00 -8,5 -9,4 19 10 36 19 E 0,1 0 0,0
12.12.2018 22:00:00 -8,4 -9,4 18 10 39 21 E 0,1 0 0,0
12.12.2018 21:00:00 -8,4 -9,4 21 12 37 20 ENE 0,1 0 0,0
12.12.2018 20:00:00 -8,1 -9,1 21 12 39 21 ENE 0,1 0 0,1
12.12.2018 19:00:00 -6,5 -7,5 26 14 39 21 N 0,3 0 0,0
12.12.2018 18:00:00 -6,5 -7,5 35 19 46 25 N 0,3 0 0,0
12.12.2018 17:00:00 -6,2 -7,1 30 16 41 22 NNE 0,1 0 0,0
12.12.2018 16:00:00 -6,2 -7,2 25 14 38 20 NNE 0,2 0 0,0
12.12.2018 15:00:00 -6,0 -6,9 24 13 35 19 N 0,1 0 0,1
12.12.2018 14:00:00 -6,3 -7,2 24 13 32 17 NNW 0,1 0 0,0
12.12.2018 13:00:00 -5,9 -6,7 18 10 26 14 NNW - 0 0,0
12.12.2018 12:00:00 -6,2 -7,0 17 9 29 16 NNW 0,1 0 0,0
12.12.2018 11:00:00 -6,0 -6,8 23 12 31 17 NNW - 0 0,0
12.12.2018 10:00:00 -6,0 -6,7 23 12 34 18 N 0,1 0 0,0
12.12.2018 09:00:00 -6,0 -6,6 24 13 38 20 N 0,1 0 0,0
12.12.2018 08:00:00 -6,0 -6,7 26 14 40 21 NNW 0,1 0 0,0
12.12.2018 07:00:00 -5,8 -6,4 29 16 53 29 N 0,1 0 0,1
12.12.2018 06:00:00 -5,3 -5,7 35 19 54 29 NNW 0,1 0 0,0
12.12.2018 05:00:00 -5,3 -5,7 36 19 52 28 NNW 0,1 0 0,3
12.12.2018 04:00:00 -5,3 -5,6 32 17 50 27 NW 0,1 0 0,2
12.12.2018 03:00:00 -5,3 -5,7 34 19 55 30 NW 0,1 0 0,2
12.12.2018 02:00:00 -5,2 -5,6 35 19 53 29 NW 0,1 0 0,2
12.12.2018 01:00:00 -5,2 -5,5 35 19 54 29 NW 0,1 0 0,1
12.12.2018 00:00:00 -5,2 -5,6 31 17 57 31 NW 0,1 0 0,3
11.12.2018 23:00:00 -5,3 -5,8 36 19 56 30 WNW 0,1 0 0,2
11.12.2018 22:00:00 -5,3 -5,7 36 19 62 33 WNW 0,1 0 0,9
11.12.2018 21:00:00 -5,5 -6,1 47 25 69 37 WNW 0,1 0 0,6
11.12.2018 20:00:00 -5,4 -5,9 39 21 64 35 WNW 0,1 0 0,7
11.12.2018 19:00:00 -5,5 -5,9 37 20 63 34 WNW 0,1 0 0,4
11.12.2018 18:00:00 -5,4 -5,9 36 19 61 33 WNW 0,1 0 0,5
11.12.2018 17:00:00 -5,3 -5,7 41 22 66 36 WNW 0,1 0 0,8
11.12.2018 16:00:00 -5,3 -5,7 44 24 69 37 WNW 0,1 0 0,8
11.12.2018 15:00:00 -5,3 -5,9 42 23 69 38 W 0,1 0 1,1
11.12.2018 14:00:00 -5,4 -5,8 45 25 64 35 W 0,1 0 0,6
11.12.2018 13:00:00 -5,5 -5,8 40 22 75 41 WNW 0,1 0 0,0
11.12.2018 12:00:00 -5,6 -6,2 52 28 79 42 WNW 0,1 0 0,1
11.12.2018 11:00:00 -5,6 -6,0 39 21 74 40 WNW 0,1 0 0,4
11.12.2018 10:00:00 -5,5 -5,9 48 26 74 40 WNW 0,1 0 0,6
11.12.2018 09:00:00 -5,7 -6,1 51 28 81 44 WNW 0,1 0 0,4
11.12.2018 08:00:00 -5,8 -6,3 55 30 82 44 W 0,1 0 0,3
11.12.2018 07:00:00 -5,9 -6,5 58 31 87 47 W 0,1 0 0,0
11.12.2018 06:00:00 -5,7 -6,2 50 27 77 41 WNW - 0 0,0
11.12.2018 05:00:00 -5,6 -6,0 41 22 79 43 WNW 0,1 0 0,2
11.12.2018 04:00:00 -5,7 -6,1 47 26 75 40 WNW 0,1 0 0,1
11.12.2018 03:00:00 -5,8 -6,3 45 24 64 35 W - 0 0,0
11.12.2018 02:00:00 -5,9 -6,3 31 17 67 36 WNW - 0 0,1
11.12.2018 01:00:00 -6,0 -6,4 36 19 73 40 WNW 0,1 0 0,0
11.12.2018 00:00:00 -6,3 -6,8 44 24 66 36 NW 0,1 0 0,0
10.12.2018 23:00:00 -6,2 -6,5 39 21 69 37 NW 0,1 0 0,0
10.12.2018 22:00:00 -6,0 -6,3 42 23 69 37 NW 0,1 0 0,1
10.12.2018 21:00:00 -5,9 -6,1 37 20 75 40 WNW 0,1 0 0,2
10.12.2018 20:00:00 -5,5 -5,6 31 17 79 43 NW 0,1 0 0,0
10.12.2018 19:00:00 -5,5 -5,8 44 24 88 47 WNW 0,1 0 1,8
10.12.2018 18:00:00 -5,2 -5,7 51 27 86 47 W 0,1 0 0,0
10.12.2018 17:00:00 -5,1 -5,4 42 23 84 45 W 0,1 0 0,0
10.12.2018 16:00:00 -5,3 -5,8 50 27 82 44 WNW 0,1 0 0,0
10.12.2018 15:00:00 -5,2 -5,7 53 29 84 45 WNW 0,1 0 0,0
10.12.2018 14:00:00 -5,1 -5,5 46 25 89 48 WNW 0,1 0 0,0
10.12.2018 13:00:00 -5,0 -5,5 46 25 93 50 WNW 0,1 0 0,1
10.12.2018 12:00:00 -4,9 -5,3 43 23 83 45 WNW 0,1 0 0,2
10.12.2018 11:00:00 -5,0 -5,5 46 25 96 52 WNW 0,1 0 0,0
10.12.2018 10:00:00 -4,9 -5,3 46 25 81 44 NW 0,1 0 0,0
10.12.2018 09:00:00 -4,8 -5,1 42 23 85 46 WNW 0,1 0 0,0
10.12.2018 08:00:00 -4,4 -4,7 46 25 76 41 WNW 0,1 0 0,3
10.12.2018 07:00:00 -4,3 -4,6 49 27 86 46 WNW 0,1 0 0,0
10.12.2018 06:00:00 -4,5 -5,0 60 32 92 50 WNW 0,1 0 0,0
10.12.2018 05:00:00 -4,2 -4,6 62 33 94 51 WNW 0,1 0 0,0
10.12.2018 04:00:00 -4,0 -4,3 49 26 86 47 WNW 0,1 0 0,0
10.12.2018 03:00:00 -3,6 -3,9 47 25 87 47 WNW 0,1 0 0,1
10.12.2018 02:00:00 -2,7 -2,9 50 27 80 43 NW 0,1 0 0,4
10.12.2018 01:00:00 -2,1 -2,1 46 25 78 42 WNW 0,1 0 0,3
10.12.2018 00:00:00 -2,1 -2,2 50 27 81 44 WNW 0,1 0 0,5
09.12.2018 23:00:00 -2,1 -2,2 51 27 79 43 WNW 0,1 0 0,0
09.12.2018 22:00:00 -2,4 -2,5 47 25 81 44 NW 0,1 0 0,4
09.12.2018 21:00:00 -1,4 -1,4 39 21 89 48 WNW 0,1 0 1,0
09.12.2018 20:00:00 -1,5 -1,5 54 29 79 43 W 0,1 0 1,7
09.12.2018 19:00:00 -1,2 -1,2 54 29 79 42 W 0,1 0 2,0
09.12.2018 18:00:00 -1,4 -1,4 44 24 80 43 W 0,1 0 2,6
09.12.2018 17:00:00 -1,4 -1,4 45 24 70 38 W 0,1 0 2,0
09.12.2018 16:00:00 -1,4 -1,4 45 24 81 44 W 0,1 0 1,2
09.12.2018 15:00:00 -1,2 -1,2 47 25 82 45 W 0,1 0 0,9
09.12.2018 14:00:00 -1,1 -1,1 54 29 99 54 W 0,1 0 0,3
09.12.2018 13:00:00 -1,4 -1,5 64 35 97 52 W 0,1 0 0,8
09.12.2018 12:00:00 -1,2 -1,2 51 27 94 51 W 0,1 0 0,4
09.12.2018 11:00:00 -1,2 -1,2 51 28 97 53 W 0,1 0 0,0
09.12.2018 10:00:00 -1,1 -1,1 62 33 92 50 W 0,1 0 0,4
09.12.2018 09:00:00 -1,1 -1,1 64 35 88 48 W 0,1 0 0,8
09.12.2018 08:00:00 -1,6 -1,6 58 31 91 49 W 0,1 0 3,7
09.12.2018 07:00:00 -0,4 -0,4 63 34 93 50 WSW 0,1 0 0,2
09.12.2018 06:00:00 0,0 0,0 49 26 90 49 WSW - 0 0,0
09.12.2018 05:00:00 -0,1 -0,1 52 28 106 57 WSW 0,1 0 0,0
09.12.2018 04:00:00 -0,2 -0,2 57 31 89 48 SW 0,1 0 1,4
09.12.2018 03:00:00 -0,8 -0,8 44 24 74 40 SW 0,1 0 1,8
09.12.2018 02:00:00 -0,6 -0,6 38 20 74 40 SW 0,1 0 0,2
09.12.2018 01:00:00 -1,1 -1,1 41 22 74 40 SW 0,1 0 0,0
09.12.2018 00:00:00 -1,4 -1,5 53 29 89 48 SW 0,1 0 0,4
08.12.2018 23:00:00 -1,3 -1,3 68 37 93 50 SW - 0 0,0
08.12.2018 22:00:00 -1,3 -1,3 58 32 86 47 WSW - 0 0,0
08.12.2018 21:00:00 -1,4 -1,4 55 30 94 51 WSW - 0 0,1
08.12.2018 20:00:00 -1,5 -1,5 51 28 86 46 WSW 0,1 0 0,2
08.12.2018 19:00:00 -1,7 -1,8 53 29 89 48 WSW - 0 0,2
08.12.2018 18:00:00 -1,8 -1,9 54 29 90 49 WSW - 0 0,0
08.12.2018 17:00:00 -2,0 -2,2 55 30 90 49 WSW - 0 0,6
08.12.2018 16:00:00 -2,1 -2,2 49 26 76 41 WSW 0,1 0 0,0
08.12.2018 15:00:00 -2,3 -2,5 52 28 75 40 SW 0,1 0 0,6
08.12.2018 14:00:00 -2,4 -2,6 45 25 69 38 SW 0,1 0 0,2
08.12.2018 13:00:00 -2,6 -2,8 49 26 74 40 SW 0,1 0 0,0
08.12.2018 12:00:00 -3,0 -3,3 47 26 79 42 WSW 0,1 0 0,0
08.12.2018 11:00:00 -3,0 -3,2 56 30 76 41 WSW 0,1 0 0,0
08.12.2018 10:00:00 -3,0 -3,2 48 26 77 41 WSW 0,1 0 0,1
08.12.2018 09:00:00 -2,9 -3,1 51 27 85 46 WSW 0,1 0 0,1
08.12.2018 08:00:00 -2,8 -3,1 48 26 77 42 WSW 0,1 0 0,0
08.12.2018 07:00:00 -2,8 -3,0 46 25 86 47 WSW 0,1 0 0,1
08.12.2018 06:00:00 -2,5 -2,7 55 30 87 47 W 0,1 0 0,7
08.12.2018 05:00:00 -2,3 -2,5 48 26 99 54 W 0,1 0 0,0
08.12.2018 04:00:00 -2,2 -2,3 58 31 91 49 W 0,1 0 0,0
08.12.2018 03:00:00 -1,0 -1,0 62 33 88 47 W 0,1 0 1,2
08.12.2018 02:00:00 0,1 0,1 64 35 97 53 W 0,1 0 0,1
08.12.2018 01:00:00 1,1 1,1 62 33 103 56 WSW 0,1 0 0,3
08.12.2018 00:00:00 1,9 1,9 59 32 106 57 WSW - 0 0,9
07.12.2018 23:00:00 1,6 1,6 64 35 104 56 WSW 0,1 0 0,5
07.12.2018 22:00:00 1,7 1,7 55 30 78 42 WSW 0,1 0 0,0
07.12.2018 21:00:00 2,8 2,8 38 21 61 33 SW - 0 0,0
07.12.2018 20:00:00 3,0 3,0 30 16 51 28 SSW - 0 0,0
07.12.2018 19:00:00 3,1 3,1 30 16 50 27 SSW - 0 0,0
07.12.2018 18:00:00 2,9 2,9 38 21 55 30 SW 0,1 0 0,0
07.12.2018 17:00:00 3,0 3,0 42 23 56 30 SW 0,1 0 0,0
07.12.2018 16:00:00 3,0 3,0 45 24 60 33 SW 0,1 0 0,0
07.12.2018 15:00:00 3,5 3,5 42 23 58 31 WSW - 0 0,1
07.12.2018 14:00:00 3,5 3,5 46 25 65 35 WSW - 0 0,0
07.12.2018 13:00:00 3,5 3,5 42 23 61 33 SW - 0 0,0
07.12.2018 12:00:00 3,4 3,4 37 20 60 33 SW - 0 0,0
07.12.2018 11:00:00 3,5 3,5 44 24 68 37 WSW - 0 0,0

tt = Température de l'air
td = dewpoint
ff = Vitesse du vent
fx = gusts
dd = Direction du vent
vv = visibility
sd = Ensoleillement
rr = Quantités de précipitations

stations d'obs. à proximité